Harmon, Arkansas
Current Conditions -  °F | °C
As of 12:53 PM on Thursday 23 Oct 2014 (Local Time) from KFYV Reporting Station
Light Rain Light Rain  
Wind Chill: 58°   Ceiling: 7000
Heat Index: 58°   Visibility: 10mi
Dew Point: 53°   Wind: 0mph
Humidity: 84%   Direction: NA
Pressure: 30.19"   Gusts: NA
Location:  35.9902°N, 94.083°W
Report Text: KFYV 231753Z 00000KT 10SM -RA SCT041 BKN070 OVC100 14/12 A3019 RMK AO2 SLP222 P0000 60004 T01440117 10144 20111 58002
Loading
Personal Weather Stations






























Interactive Weather Map
Tropical Storm Tracking
New forecast layout! Learn more

10-Day Weather Forecast

Advertisements
Track Severe Weather on mobile